sensor_id;sensor_type;location;lat;lon;timestamp;pressure;altitude;pressure_sealevel;temperature;humidity
38197;BME280;26543;51.976;4.616;2023-09-12T00:01:05;52543.03;;;-140.72;100.00
38197;BME280;26543;51.976;4.616;2023-09-12T00:03:31;52530.88;;;-140.72;100.00
38197;BME280;26543;51.976;4.616;2023-09-12T00:05:57;52569.44;;;-140.72;100.00
38197;BME280;26543;51.976;4.616;2023-09-12T00:08:23;52522.75;;;-140.72;100.00
38197;BME280;26543;51.976;4.616;2023-09-12T00:11:07;52549.13;;;-140.72;100.00
38197;BME280;26543;51.976;4.616;2023-09-12T00:13:36;52575.50;;;-140.72;100.00
38197;BME280;26543;51.976;4.616;2023-09-12T00:16:01;52563.34;;;-140.72;100.00
38197;BME280;26543;51.976;4.616;2023-09-12T00:18:27;52575.50;;;-140.72;100.00
38197;BME280;26543;51.976;4.616;2023-09-12T00:20:52;52549.13;;;-140.72;100.00
38197;BME280;26543;51.976;4.616;2023-09-12T00:23:18;52545.06;;;-140.72;100.00
38197;BME280;26543;51.976;4.616;2023-09-12T00:28:41;52569.44;;;-140.72;100.00
38197;BME280;26543;51.976;4.616;2023-09-12T00:31:07;52628.28;;;-140.72;100.00
38197;BME280;26543;51.976;4.616;2023-09-12T00:33:32;52545.06;;;-140.72;100.00
38197;BME280;26543;51.976;4.616;2023-09-12T00:35:57;52545.06;;;-140.72;100.00
38197;BME280;26543;51.976;4.616;2023-09-12T00:40:55;52536.97;;;-140.72;100.00
38197;BME280;26543;51.976;4.616;2023-09-12T00:43:20;52522.75;;;-140.72;100.00
38197;BME280;26543;51.976;4.616;2023-09-12T00:45:55;52581.59;;;-140.72;100.00
38197;BME280;26543;51.976;4.616;2023-09-12T00:48:20;52553.19;;;-140.72;100.00
38197;BME280;26543;51.976;4.616;2023-09-12T00:50:47;52583.63;;;-140.72;100.00
38197;BME280;26543;51.976;4.616;2023-09-12T00:53:23;52593.78;;;-140.72;100.00
38197;BME280;26543;51.976;4.616;2023-09-12T00:55:51;52575.50;;;-140.72;100.00
38197;BME280;26543;51.976;4.616;2023-09-12T00:58:25;52561.31;;;-140.72;100.00
38197;BME280;26543;51.976;4.616;2023-09-12T01:00:52;52549.13;;;-140.72;100.00
38197;BME280;26543;51.976;4.616;2023-09-12T01:03:17;52569.44;;;-140.72;100.00
38197;BME280;26543;51.976;4.616;2023-09-12T01:05:42;52551.16;;;-140.72;100.00
38197;BME280;26543;51.976;4.616;2023-09-12T01:08:09;52551.16;;;-140.72;100.00
38197;BME280;26543;51.976;4.616;2023-09-12T01:10:35;52587.69;;;-140.72;100.00
38197;BME280;26543;51.976;4.616;2023-09-12T01:13:00;52583.63;;;-140.72;100.00
38197;BME280;26543;51.976;4.616;2023-09-12T01:15:26;52543.03;;;-140.72;100.00
38197;BME280;26543;51.976;4.616;2023-09-12T01:17:52;52547.09;;;-140.72;100.00
38197;BME280;26543;51.976;4.616;2023-09-12T01:20:52;52597.84;;;-140.72;100.00
38197;BME280;26543;51.976;4.616;2023-09-12T01:31:20;52581.59;;;-140.72;100.00
38197;BME280;26543;51.976;4.616;2023-09-12T01:33:47;52577.53;;;-140.72;100.00
38197;BME280;26543;51.976;4.616;2023-09-12T01:36:12;52571.47;;;-140.72;100.00
38197;BME280;26543;51.976;4.616;2023-09-12T01:38:37;52553.19;;;-140.72;100.00
38197;BME280;26543;51.976;4.616;2023-09-12T01:41:03;52581.59;;;-140.72;100.00
38197;BME280;26543;51.976;4.616;2023-09-12T01:43:28;52559.28;;;-140.72;100.00
38197;BME280;26543;51.976;4.616;2023-09-12T01:45:55;52569.44;;;-140.72;100.00
38197;BME280;26543;51.976;4.616;2023-09-12T01:48:21;52589.72;;;-140.72;100.00
38197;BME280;26543;51.976;4.616;2023-09-12T01:50:47;52561.31;;;-140.72;100.00
38197;BME280;26543;51.976;4.616;2023-09-12T01:53:13;52591.75;;;-140.72;100.00
38197;BME280;26543;51.976;4.616;2023-09-12T01:55:44;52581.59;;;-140.72;100.00
38197;BME280;26543;51.976;4.616;2023-09-12T01:58:10;52581.59;;;-140.72;100.00
38197;BME280;26543;51.976;4.616;2023-09-12T02:00:36;52581.59;;;-140.72;100.00
38197;BME280;26543;51.976;4.616;2023-09-12T02:03:03;52601.91;;;-140.72;100.00
38197;BME280;26543;51.976;4.616;2023-09-12T02:05:29;52549.13;;;-140.72;100.00
38197;BME280;26543;51.976;4.616;2023-09-12T02:07:54;52565.38;;;-140.72;100.00
38197;BME280;26543;51.976;4.616;2023-09-12T02:10:20;52575.50;;;-140.72;100.00
38197;BME280;26543;51.976;4.616;2023-09-12T02:12:46;52549.13;;;-140.72;100.00
38197;BME280;26543;51.976;4.616;2023-09-12T02:15:11;52597.84;;;-140.72;100.00
38197;BME280;26543;51.976;4.616;2023-09-12T02:17:37;52569.44;;;-140.72;100.00
38197;BME280;26543;51.976;4.616;2023-09-12T02:20:04;52614.06;;;-140.72;100.00
38197;BME280;26543;51.976;4.616;2023-09-12T02:22:32;52612.03;;;-140.72;100.00
38197;BME280;26543;51.976;4.616;2023-09-12T02:24:57;52585.66;;;-140.72;100.00
38197;BME280;26543;51.976;4.616;2023-09-12T02:27:22;52603.94;;;-140.72;100.00
38197;BME280;26543;51.976;4.616;2023-09-12T02:29:47;52605.94;;;-140.72;100.00
38197;BME280;26543;51.976;4.616;2023-09-12T02:32:12;52601.91;;;-140.72;100.00
38197;BME280;26543;51.976;4.616;2023-09-12T02:34:38;52601.91;;;-140.72;100.00
38197;BME280;26543;51.976;4.616;2023-09-12T02:37:03;52557.25;;;-140.72;100.00
38197;BME280;26543;51.976;4.616;2023-09-12T02:39:28;52601.91;;;-140.72;100.00
38197;BME280;26543;51.976;4.616;2023-09-12T02:41:53;52618.13;;;-140.72;100.00
38197;BME280;26543;51.976;4.616;2023-09-12T02:44:19;52628.28;;;-140.72;100.00
38197;BME280;26543;51.976;4.616;2023-09-12T02:46:44;52614.06;;;-140.72;100.00
38197;BME280;26543;51.976;4.616;2023-09-12T02:49:09;52614.06;;;-140.72;100.00
38197;BME280;26543;51.976;4.616;2023-09-12T02:51:37;52610.00;;;-140.72;100.00
38197;BME280;26543;51.976;4.616;2023-09-12T02:54:03;52569.44;;;-140.72;100.00
38197;BME280;26543;51.976;4.616;2023-09-12T02:56:28;52595.81;;;-140.72;100.00
38197;BME280;26543;51.976;4.616;2023-09-12T02:58:53;52603.94;;;-140.72;100.00
38197;BME280;26543;51.976;4.616;2023-09-12T03:01:19;52569.44;;;-140.72;100.00
38197;BME280;26543;51.976;4.616;2023-09-12T03:03:48;52583.63;;;-140.72;100.00
38197;BME280;26543;51.976;4.616;2023-09-12T03:06:13;52585.66;;;-140.72;100.00
38197;BME280;26543;51.976;4.616;2023-09-12T03:08:43;52591.75;;;-140.72;100.00
38197;BME280;26543;51.976;4.616;2023-09-12T03:11:09;52616.09;;;-140.72;100.00
38197;BME280;26543;51.976;4.616;2023-09-12T03:13:35;52593.78;;;-140.72;100.00
38197;BME280;26543;51.976;4.616;2023-09-12T03:16:01;52601.91;;;-140.72;100.00
38197;BME280;26543;51.976;4.616;2023-09-12T03:18:26;52589.72;;;-140.72;100.00
38197;BME280;26543;51.976;4.616;2023-09-12T03:20:51;52614.06;;;-140.72;100.00
38197;BME280;26543;51.976;4.616;2023-09-12T03:23:17;52605.94;;;-140.72;100.00
38197;BME280;26543;51.976;4.616;2023-09-12T03:25:42;52591.75;;;-140.72;100.00
38197;BME280;26543;51.976;4.616;2023-09-12T03:28:07;52599.88;;;-140.72;100.00
38197;BME280;26543;51.976;4.616;2023-09-12T03:30:33;52591.75;;;-140.72;100.00
38197;BME280;26543;51.976;4.616;2023-09-12T03:32:59;52595.81;;;-140.72;100.00
38197;BME280;26543;51.976;4.616;2023-09-12T03:35:24;52587.69;;;-140.72;100.00
38197;BME280;26543;51.976;4.616;2023-09-12T03:37:50;52601.91;;;-140.72;100.00
38197;BME280;26543;51.976;4.616;2023-09-12T03:40:15;52571.47;;;-140.72;100.00
38197;BME280;26543;51.976;4.616;2023-09-12T03:42:40;52589.72;;;-140.72;100.00
38197;BME280;26543;51.976;4.616;2023-09-12T03:45:06;52595.81;;;-140.72;100.00
38197;BME280;26543;51.976;4.616;2023-09-12T03:47:31;52571.47;;;-140.72;100.00
38197;BME280;26543;51.976;4.616;2023-09-12T03:49:56;52601.91;;;-140.72;100.00
38197;BME280;26543;51.976;4.616;2023-09-12T03:52:22;52599.88;;;-140.72;100.00
38197;BME280;26543;51.976;4.616;2023-09-12T03:54:47;52549.13;;;-140.72;100.00
38197;BME280;26543;51.976;4.616;2023-09-12T03:57:12;52618.13;;;-140.72;100.00
38197;BME280;26543;51.976;4.616;2023-09-12T03:59:37;52585.66;;;-140.72;100.00
38197;BME280;26543;51.976;4.616;2023-09-12T04:02:09;52591.75;;;-140.72;100.00
38197;BME280;26543;51.976;4.616;2023-09-12T04:04:35;52593.78;;;-140.72;100.00
38197;BME280;26543;51.976;4.616;2023-09-12T04:07:00;52614.06;;;-140.72;100.00
38197;BME280;26543;51.976;4.616;2023-09-12T04:09:26;52571.47;;;-140.72;100.00
38197;BME280;26543;51.976;4.616;2023-09-12T04:11:52;52597.84;;;-140.72;100.00
38197;BME280;26543;51.976;4.616;2023-09-12T04:14:18;52573.50;;;-140.72;100.00
38197;BME280;26543;51.976;4.616;2023-09-12T04:16:53;52597.84;;;-140.72;100.00
38197;BME280;26543;51.976;4.616;2023-09-12T04:19:18;52573.50;;;-140.72;100.00
38197;BME280;26543;51.976;4.616;2023-09-12T04:21:44;52565.38;;;-140.72;100.00
38197;BME280;26543;51.976;4.616;2023-09-12T04:24:09;52589.72;;;-140.72;100.00
38197;BME280;26543;51.976;4.616;2023-09-12T04:26:34;52581.59;;;-140.72;100.00
38197;BME280;26543;51.976;4.616;2023-09-12T04:29:00;52599.88;;;-140.72;100.00
38197;BME280;26543;51.976;4.616;2023-09-12T04:31:25;52603.94;;;-140.72;100.00
38197;BME280;26543;51.976;4.616;2023-09-12T04:33:50;52601.91;;;-140.72;100.00
38197;BME280;26543;51.976;4.616;2023-09-12T04:36:16;52614.06;;;-140.72;100.00
38197;BME280;26543;51.976;4.616;2023-09-12T04:38:41;52577.53;;;-140.72;100.00
38197;BME280;26543;51.976;4.616;2023-09-12T04:41:07;52593.78;;;-140.72;100.00
38197;BME280;26543;51.976;4.616;2023-09-12T04:43:33;52593.78;;;-140.72;100.00
38197;BME280;26543;51.976;4.616;2023-09-12T04:45:59;52583.63;;;-140.72;100.00
38197;BME280;26543;51.976;4.616;2023-09-12T04:48:24;52571.47;;;-140.72;100.00
38197;BME280;26543;51.976;4.616;2023-09-12T04:50:50;52581.59;;;-140.72;100.00
38197;BME280;26543;51.976;4.616;2023-09-12T04:53:15;52589.72;;;-140.72;100.00
38197;BME280;26543;51.976;4.616;2023-09-12T04:55:40;52587.69;;;-140.72;100.00
38197;BME280;26543;51.976;4.616;2023-09-12T04:58:06;52569.44;;;-140.72;100.00
38197;BME280;26543;51.976;4.616;2023-09-12T05:00:31;52561.31;;;-140.72;100.00
38197;BME280;26543;51.976;4.616;2023-09-12T05:02:57;52555.22;;;-140.72;100.00
38197;BME280;26543;51.976;4.616;2023-09-12T05:05:22;52610.00;;;-140.72;100.00
38197;BME280;26543;51.976;4.616;2023-09-12T05:07:47;52573.50;;;-140.72;100.00
38197;BME280;26543;51.976;4.616;2023-09-12T05:10:12;52583.63;;;-140.72;100.00
38197;BME280;26543;51.976;4.616;2023-09-12T05:12:38;52593.78;;;-140.72;100.00
38197;BME280;26543;51.976;4.616;2023-09-12T05:15:03;52579.56;;;-140.72;100.00
38197;BME280;26543;51.976;4.616;2023-09-12T05:17:29;52575.50;;;-140.72;100.00
38197;BME280;26543;51.976;4.616;2023-09-12T05:19:54;52585.66;;;-140.72;100.00
38197;BME280;26543;51.976;4.616;2023-09-12T05:22:19;52571.47;;;-140.72;100.00
38197;BME280;26543;51.976;4.616;2023-09-12T05:24:45;52595.81;;;-140.72;100.00
38197;BME280;26543;51.976;4.616;2023-09-12T05:27:11;52557.25;;;-140.72;100.00
38197;BME280;26543;51.976;4.616;2023-09-12T05:29:36;52567.41;;;-140.72;100.00
38197;BME280;26543;51.976;4.616;2023-09-12T05:32:02;52553.19;;;-140.72;100.00
38197;BME280;26543;51.976;4.616;2023-09-12T05:34:29;52567.41;;;-140.72;100.00
38197;BME280;26543;51.976;4.616;2023-09-12T05:36:54;52581.59;;;-140.72;100.00
38197;BME280;26543;51.976;4.616;2023-09-12T05:39:19;52597.84;;;-140.72;100.00
38197;BME280;26543;51.976;4.616;2023-09-12T05:41:50;52543.03;;;-140.72;100.00
38197;BME280;26543;51.976;4.616;2023-09-12T05:44:27;52571.47;;;-140.72;100.00
38197;BME280;26543;51.976;4.616;2023-09-12T05:46:52;52597.84;;;-140.72;100.00
38197;BME280;26543;51.976;4.616;2023-09-12T05:49:17;52545.06;;;-140.72;100.00
38197;BME280;26543;51.976;4.616;2023-09-12T05:51:42;52571.47;;;-140.72;100.00
38197;BME280;26543;51.976;4.616;2023-09-12T05:54:09;52532.91;;;-140.72;100.00
38197;BME280;26543;51.976;4.616;2023-09-12T05:56:34;52577.53;;;-140.72;100.00
38197;BME280;26543;51.976;4.616;2023-09-12T05:59:00;52581.59;;;-140.72;100.00
38197;BME280;26543;51.976;4.616;2023-09-12T06:01:25;52567.41;;;-140.72;100.00
38197;BME280;26543;51.976;4.616;2023-09-12T06:03:50;52534.94;;;-140.72;100.00
38197;BME280;26543;51.976;4.616;2023-09-12T06:06:16;52553.19;;;-140.72;100.00
38197;BME280;26543;51.976;4.616;2023-09-12T06:08:41;52559.28;;;-140.72;100.00
38197;BME280;26543;51.976;4.616;2023-09-12T06:11:06;52549.13;;;-140.72;100.00
38197;BME280;26543;51.976;4.616;2023-09-12T06:13:31;52555.22;;;-140.72;100.00
38197;BME280;26543;51.976;4.616;2023-09-12T06:15:57;52563.34;;;-140.72;100.00
38197;BME280;26543;51.976;4.616;2023-09-12T06:18:23;52541.03;;;-140.72;100.00
38197;BME280;26543;51.976;4.616;2023-09-12T06:20:49;52539.00;;;-140.72;100.00
38197;BME280;26543;51.976;4.616;2023-09-12T06:23:14;52547.09;;;-140.72;100.00
38197;BME280;26543;51.976;4.616;2023-09-12T06:25:39;52543.03;;;-140.72;100.00
38197;BME280;26543;51.976;4.616;2023-09-12T06:28:09;52573.50;;;-140.72;100.00
38197;BME280;26543;51.976;4.616;2023-09-12T06:30:35;52561.31;;;-140.72;100.00
38197;BME280;26543;51.976;4.616;2023-09-12T06:33:01;52549.13;;;-140.72;100.00
38197;BME280;26543;51.976;4.616;2023-09-12T06:35:27;52573.50;;;-140.72;100.00
38197;BME280;26543;51.976;4.616;2023-09-12T06:37:53;52555.22;;;-140.72;100.00
38197;BME280;26543;51.976;4.616;2023-09-12T06:40:24;52553.19;;;-140.72;100.00
38197;BME280;26543;51.976;4.616;2023-09-12T06:42:50;52541.03;;;-140.72;100.00
38197;BME280;26543;51.976;4.616;2023-09-12T06:45:15;52567.41;;;-140.72;100.00
38197;BME280;26543;51.976;4.616;2023-09-12T06:47:40;52532.91;;;-140.72;100.00
38197;BME280;26543;51.976;4.616;2023-09-12T06:50:06;52543.03;;;-140.72;100.00
38197;BME280;26543;51.976;4.616;2023-09-12T06:52:39;52506.53;;;-140.72;100.00
38197;BME280;26543;51.976;4.616;2023-09-12T06:55:05;52545.06;;;-140.72;100.00
38197;BME280;26543;51.976;4.616;2023-09-12T06:57:30;52530.88;;;-140.72;100.00
38197;BME280;26543;51.976;4.616;2023-09-12T06:59:55;52545.06;;;-140.72;100.00
38197;BME280;26543;51.976;4.616;2023-09-12T07:02:24;52543.03;;;-140.72;100.00
38197;BME280;26543;51.976;4.616;2023-09-12T07:04:49;52547.09;;;-140.72;100.00
38197;BME280;26543;51.976;4.616;2023-09-12T07:10:17;52543.03;;;-140.72;100.00
38197;BME280;26543;51.976;4.616;2023-09-12T07:12:42;52549.13;;;-140.72;100.00
38197;BME280;26543;51.976;4.616;2023-09-12T07:15:08;52518.69;;;-140.72;100.00
38197;BME280;26543;51.976;4.616;2023-09-12T07:17:34;52581.59;;;-140.72;100.00
38197;BME280;26543;51.976;4.616;2023-09-12T07:19:59;52532.91;;;-140.72;100.00
38197;BME280;26543;51.976;4.616;2023-09-12T07:22:25;52504.50;;;-140.72;100.00
38197;BME280;26543;51.976;4.616;2023-09-12T07:24:51;52545.06;;;-140.72;100.00
38197;BME280;26543;51.976;4.616;2023-09-12T07:27:16;52532.91;;;-140.72;100.00
38197;BME280;26543;51.976;4.616;2023-09-12T07:29:41;52518.69;;;-140.72;100.00
38197;BME280;26543;51.976;4.616;2023-09-12T07:32:06;52516.66;;;-140.72;100.00
38197;BME280;26543;51.976;4.616;2023-09-12T07:34:32;52522.75;;;-140.72;100.00
38197;BME280;26543;51.976;4.616;2023-09-12T07:36:58;52545.06;;;-140.72;100.00
38197;BME280;26543;51.976;4.616;2023-09-12T07:39:23;52512.59;;;-140.72;100.00
38197;BME280;26543;51.976;4.616;2023-09-12T07:41:48;52512.59;;;-140.72;100.00
38197;BME280;26543;51.976;4.616;2023-09-12T07:44:14;52536.97;;;-140.72;100.00
38197;BME280;26543;51.976;4.616;2023-09-12T07:46:41;52545.06;;;-140.72;100.00
38197;BME280;26543;51.976;4.616;2023-09-12T07:49:06;52530.88;;;-140.72;100.00
38197;BME280;26543;51.976;4.616;2023-09-12T07:51:34;52553.19;;;-140.72;100.00
38197;BME280;26543;51.976;4.616;2023-09-12T07:53:59;52516.66;;;-140.72;100.00
38197;BME280;26543;51.976;4.616;2023-09-12T07:56:24;52512.59;;;-140.72;100.00
38197;BME280;26543;51.976;4.616;2023-09-12T07:58:49;52476.09;;;-140.72;100.00
38197;BME280;26543;51.976;4.616;2023-09-12T08:01:15;52486.22;;;-140.72;100.00
38197;BME280;26543;51.976;4.616;2023-09-12T08:03:41;52504.50;;;-140.72;100.00
38197;BME280;26543;51.976;4.616;2023-09-12T08:06:07;52453.75;;;-140.72;100.00
38197;BME280;26543;51.976;4.616;2023-09-12T08:08:32;52480.16;;;-140.72;100.00
38197;BME280;26543;51.976;4.616;2023-09-12T08:10:57;52465.94;;;-140.72;100.00
38197;BME280;26543;51.976;4.616;2023-09-12T08:13:25;52461.88;;;-140.72;100.00
38197;BME280;26543;51.976;4.616;2023-09-12T08:15:50;52447.69;;;-140.72;100.00
38197;BME280;26543;51.976;4.616;2023-09-12T08:18:16;52474.06;;;-140.72;100.00
38197;BME280;26543;51.976;4.616;2023-09-12T08:20:42;52419.28;;;-140.72;100.00
38197;BME280;26543;51.976;4.616;2023-09-12T08:23:08;52465.94;;;-140.72;100.00
38197;BME280;26543;51.976;4.616;2023-09-12T08:25:33;52478.13;;;-140.72;100.00
38197;BME280;26543;51.976;4.616;2023-09-12T08:27:58;52443.63;;;-140.72;100.00
38197;BME280;26543;51.976;4.616;2023-09-12T08:30:24;52451.72;;;-140.72;100.00
38197;BME280;26543;51.976;4.616;2023-09-12T08:32:50;52443.63;;;-140.72;100.00
38197;BME280;26543;51.976;4.616;2023-09-12T08:35:16;52455.78;;;-140.72;100.00
38197;BME280;26543;51.976;4.616;2023-09-12T08:37:41;52443.63;;;-140.72;100.00
38197;BME280;26543;51.976;4.616;2023-09-12T08:40:07;52431.44;;;-140.72;100.00
38197;BME280;26543;51.976;4.616;2023-09-12T08:42:44;52396.94;;;-140.72;100.00
38197;BME280;26543;51.976;4.616;2023-09-12T08:47:35;52417.25;;;-140.72;100.00
38197;BME280;26543;51.976;4.616;2023-09-12T08:50:01;52394.91;;;-140.72;100.00
38197;BME280;26543;51.976;4.616;2023-09-12T08:52:28;52344.19;;;-140.72;100.00
38197;BME280;26543;51.976;4.616;2023-09-12T08:54:53;52356.38;;;-140.72;100.00
38197;BME280;26543;51.976;4.616;2023-09-12T08:57:18;52325.94;;;-140.72;100.00
38197;BME280;26543;51.976;4.616;2023-09-12T08:59:44;52319.84;;;-140.72;100.00
38197;BME280;26543;51.976;4.616;2023-09-12T09:02:12;52305.63;;;-140.72;100.00
38197;BME280;26543;51.976;4.616;2023-09-12T09:04:38;52240.72;;;-140.72;100.00
38197;BME280;26543;51.976;4.616;2023-09-12T09:07:04;52293.47;;;-140.72;100.00
38197;BME280;26543;51.976;4.616;2023-09-12T09:09:30;52265.06;;;-140.72;100.00
38197;BME280;26543;51.976;4.616;2023-09-12T09:11:56;52244.78;;;-140.72;100.00
38197;BME280;26543;51.976;4.616;2023-09-12T09:14:21;52258.97;;;-140.72;100.00
38197;BME280;26543;51.976;4.616;2023-09-12T09:16:46;52325.94;;;-140.72;100.00
38197;BME280;26543;51.976;4.616;2023-09-12T09:19:12;52323.91;;;-140.72;100.00
38197;BME280;26543;51.976;4.616;2023-09-12T09:21:37;52332.03;;;-140.72;100.00
38197;BME280;26543;51.976;4.616;2023-09-12T09:24:09;52360.44;;;-140.72;100.00
38197;BME280;26543;51.976;4.616;2023-09-12T09:29:07;52277.22;;;-140.72;100.00
38197;BME280;26543;51.976;4.616;2023-09-12T09:31:33;52277.22;;;-140.72;100.00
38197;BME280;26543;51.976;4.616;2023-09-12T09:33:59;52246.78;;;-140.72;100.00
38197;BME280;26543;51.976;4.616;2023-09-12T09:36:26;52265.06;;;-140.72;100.00
38197;BME280;26543;51.976;4.616;2023-09-12T09:38:51;52254.91;;;-140.72;100.00
38197;BME280;26543;51.976;4.616;2023-09-12T09:41:19;52327.97;;;-140.72;100.00
38197;BME280;26543;51.976;4.616;2023-09-12T09:43:45;52240.72;;;-140.72;100.00
38197;BME280;26543;51.976;4.616;2023-09-12T09:46:14;52224.47;;;-140.72;100.00
38197;BME280;26543;51.976;4.616;2023-09-12T09:48:40;52236.66;;;-140.72;100.00
38197;BME280;26543;51.976;4.616;2023-09-12T09:51:13;52224.47;;;-140.72;100.00
38197;BME280;26543;51.976;4.616;2023-09-12T09:53:38;52189.97;;;-140.72;100.00
38197;BME280;26543;51.976;4.616;2023-09-12T09:56:11;52226.50;;;-140.72;100.00
38197;BME280;26543;51.976;4.616;2023-09-12T09:58:58;52236.66;;;-140.72;100.00
38197;BME280;26543;51.976;4.616;2023-09-12T10:01:23;52267.09;;;-140.72;100.00
38197;BME280;26543;51.976;4.616;2023-09-12T10:03:52;52291.44;;;-140.72;100.00
38197;BME280;26543;51.976;4.616;2023-09-12T10:06:18;52240.72;;;-140.72;100.00
38197;BME280;26543;51.976;4.616;2023-09-12T10:08:44;52232.59;;;-140.72;100.00
38197;BME280;26543;51.976;4.616;2023-09-12T10:11:12;52236.66;;;-140.72;100.00
38197;BME280;26543;51.976;4.616;2023-09-12T10:13:39;52208.25;;;-140.72;100.00
38197;BME280;26543;51.976;4.616;2023-09-12T10:16:07;52143.31;;;-140.72;100.00
38197;BME280;26543;51.976;4.616;2023-09-12T10:18:33;52163.59;;;-140.72;100.00
38197;BME280;26543;51.976;4.616;2023-09-12T10:21:14;52147.38;;;-140.72;100.00
38197;BME280;26543;51.976;4.616;2023-09-12T10:23:44;52173.75;;;-140.72;100.00
38197;BME280;26543;51.976;4.616;2023-09-12T10:26:13;52194.03;;;-140.72;100.00
38197;BME280;26543;51.976;4.616;2023-09-12T10:28:42;52218.38;;;-140.72;100.00
38197;BME280;26543;51.976;4.616;2023-09-12T10:31:08;52198.09;;;-140.72;100.00
38197;BME280;26543;51.976;4.616;2023-09-12T10:33:34;52155.50;;;-140.72;100.00
38197;BME280;26543;51.976;4.616;2023-09-12T10:35:59;52153.47;;;-140.72;100.00
38197;BME280;26543;51.976;4.616;2023-09-12T10:38:28;52080.41;;;-140.72;100.00
38197;BME280;26543;51.976;4.616;2023-09-12T10:40:54;52074.34;;;-140.72;30.76
38197;BME280;26543;51.976;4.616;2023-09-12T10:43:20;52108.81;;;-140.72;6.12
38197;BME280;26543;51.976;4.616;2023-09-12T10:45:46;52090.56;;;-140.72;0.00
38197;BME280;26543;51.976;4.616;2023-09-12T10:48:11;52045.94;;;-140.72;0.00
38197;BME280;26543;51.976;4.616;2023-09-12T10:50:37;51995.19;;;-140.72;0.00
38197;BME280;26543;51.976;4.616;2023-09-12T10:53:12;51964.78;;;-140.72;0.00
38197;BME280;26543;51.976;4.616;2023-09-12T10:55:39;51999.25;;;-140.72;0.00
38197;BME280;26543;51.976;4.616;2023-09-12T10:58:05;52114.91;;;-140.72;0.00
38197;BME280;26543;51.976;4.616;2023-09-12T11:00:30;52043.91;;;-140.72;0.00
38197;BME280;26543;51.976;4.616;2023-09-12T11:02:59;52072.31;;;-140.72;0.00
38197;BME280;26543;51.976;4.616;2023-09-12T11:05:50;52049.97;;;-140.72;0.00
38197;BME280;26543;51.976;4.616;2023-09-12T11:08:16;52062.16;;;-140.72;0.00
38197;BME280;26543;51.976;4.616;2023-09-12T11:10:42;52151.44;;;-140.72;0.00
38197;BME280;26543;51.976;4.616;2023-09-12T11:13:07;52123.03;;;-140.72;0.00
38197;BME280;26543;51.976;4.616;2023-09-12T11:15:41;52098.69;;;-140.72;0.00
38197;BME280;26543;51.976;4.616;2023-09-12T11:18:27;52080.41;;;-140.72;0.00
38197;BME280;26543;51.976;4.616;2023-09-12T11:20:55;52135.19;;;-140.72;0.00
38197;BME280;26543;51.976;4.616;2023-09-12T11:23:23;52033.75;;;-140.72;0.00
38197;BME280;26543;51.976;4.616;2023-09-12T11:26:02;52023.59;;;-140.72;0.00
38197;BME280;26543;51.976;4.616;2023-09-12T11:28:29;52017.53;;;-140.72;0.00
38197;BME280;26543;51.976;4.616;2023-09-12T11:30:55;52062.16;;;-140.72;0.00
38197;BME280;26543;51.976;4.616;2023-09-12T11:33:22;52066.22;;;-140.72;0.00
38197;BME280;26543;51.976;4.616;2023-09-12T11:35:48;52041.88;;;-140.72;0.00
38197;BME280;26543;51.976;4.616;2023-09-12T11:38:19;52133.16;;;-140.72;0.00
38197;BME280;26543;51.976;4.616;2023-09-12T11:40:50;52143.31;;;-140.72;0.00
38197;BME280;26543;51.976;4.616;2023-09-12T11:43:22;52192.00;;;-140.72;0.00
38197;BME280;26543;51.976;4.616;2023-09-12T11:45:48;52216.34;;;-140.72;0.00
38197;BME280;26543;51.976;4.616;2023-09-12T11:48:14;52202.16;;;-140.72;0.00
38197;BME280;26543;51.976;4.616;2023-09-12T11:50:39;52208.25;;;-140.72;11.33
38197;BME280;26543;51.976;4.616;2023-09-12T11:53:07;52250.84;;;-140.72;100.00
38197;BME280;26543;51.976;4.616;2023-09-12T11:55:43;52246.78;;;-140.72;100.00
38197;BME280;26543;51.976;4.616;2023-09-12T11:58:09;52321.88;;;-140.72;100.00
38197;BME280;26543;51.976;4.616;2023-09-12T12:00:35;52366.50;;;-140.72;100.00
38197;BME280;26543;51.976;4.616;2023-09-12T12:03:00;52323.91;;;-140.72;100.00
38197;BME280;26543;51.976;4.616;2023-09-12T12:05:25;52344.19;;;-140.72;100.00
38197;BME280;26543;51.976;4.616;2023-09-12T12:07:51;52354.34;;;-140.72;100.00
38197;BME280;26543;51.976;4.616;2023-09-12T12:10:17;52334.03;;;-140.72;100.00
38197;BME280;26543;51.976;4.616;2023-09-12T12:12:45;52325.94;;;-140.72;100.00
38197;BME280;26543;51.976;4.616;2023-09-12T12:15:13;52307.66;;;-140.72;100.00
38197;BME280;26543;51.976;4.616;2023-09-12T12:17:41;52348.25;;;-140.72;100.00
38197;BME280;26543;51.976;4.616;2023-09-12T12:20:07;52342.16;;;-140.72;100.00
38197;BME280;26543;51.976;4.616;2023-09-12T12:22:35;52358.41;;;-140.72;100.00
38197;BME280;26543;51.976;4.616;2023-09-12T12:25:05;52321.88;;;-140.72;100.00
38197;BME280;26543;51.976;4.616;2023-09-12T12:27:32;52325.94;;;-140.72;100.00
38197;BME280;26543;51.976;4.616;2023-09-12T12:29:57;52321.88;;;-140.72;100.00
38197;BME280;26543;51.976;4.616;2023-09-12T12:32:22;52332.03;;;-140.72;100.00
38197;BME280;26543;51.976;4.616;2023-09-12T12:34:48;52317.81;;;-140.72;100.00
38197;BME280;26543;51.976;4.616;2023-09-12T12:37:13;52301.59;;;-140.72;100.00
38197;BME280;26543;51.976;4.616;2023-09-12T12:39:42;52330.00;;;-140.72;100.00
38197;BME280;26543;51.976;4.616;2023-09-12T12:42:07;52283.31;;;-140.72;100.00
38197;BME280;26543;51.976;4.616;2023-09-12T12:44:33;52273.19;;;-140.72;100.00
38197;BME280;26543;51.976;4.616;2023-09-12T12:47:02;52277.22;;;-140.72;100.00
38197;BME280;26543;51.976;4.616;2023-09-12T12:49:28;52301.59;;;-140.72;100.00
38197;BME280;26543;51.976;4.616;2023-09-12T12:51:55;52289.41;;;-140.72;100.00